sensor_id;sensor_type;location;lat;lon;timestamp;temperature;humidity
336;DHT22;156;48.738;9.228;2024-03-08T00:00:20;3.30;1.00
336;DHT22;156;48.738;9.228;2024-03-08T00:02:47;3.20;1.00
336;DHT22;156;48.738;9.228;2024-03-08T00:05:16;3.20;1.00
336;DHT22;156;48.738;9.228;2024-03-08T00:07:45;3.20;1.00
336;DHT22;156;48.738;9.228;2024-03-08T00:10:13;3.20;1.00
336;DHT22;156;48.738;9.228;2024-03-08T00:12:40;3.30;1.00
336;DHT22;156;48.738;9.228;2024-03-08T00:15:09;3.20;1.00
336;DHT22;156;48.738;9.228;2024-03-08T00:17:36;3.10;1.00
336;DHT22;156;48.738;9.228;2024-03-08T00:20:04;3.10;1.00
336;DHT22;156;48.738;9.228;2024-03-08T00:22:34;3.10;1.00
336;DHT22;156;48.738;9.228;2024-03-08T00:25:03;3.10;1.00
336;DHT22;156;48.738;9.228;2024-03-08T00:27:30;3.10;1.00
336;DHT22;156;48.738;9.228;2024-03-08T00:29:57;3.10;1.00
336;DHT22;156;48.738;9.228;2024-03-08T00:32:24;3.00;1.00
336;DHT22;156;48.738;9.228;2024-03-08T00:34:51;3.00;1.00
336;DHT22;156;48.738;9.228;2024-03-08T00:37:18;3.00;1.00
336;DHT22;156;48.738;9.228;2024-03-08T00:39:45;3.00;1.00
336;DHT22;156;48.738;9.228;2024-03-08T00:42:13;3.00;1.00
336;DHT22;156;48.738;9.228;2024-03-08T00:44:40;3.00;1.00
336;DHT22;156;48.738;9.228;2024-03-08T00:47:07;3.00;1.00
336;DHT22;156;48.738;9.228;2024-03-08T00:49:34;3.00;1.00
336;DHT22;156;48.738;9.228;2024-03-08T00:52:02;2.90;1.00
336;DHT22;156;48.738;9.228;2024-03-08T00:54:29;3.00;1.00
336;DHT22;156;48.738;9.228;2024-03-08T00:56:56;3.00;1.00
336;DHT22;156;48.738;9.228;2024-03-08T00:59:24;2.90;1.00
336;DHT22;156;48.738;9.228;2024-03-08T01:01:51;2.90;1.00
336;DHT22;156;48.738;9.228;2024-03-08T01:04:18;2.90;1.00
336;DHT22;156;48.738;9.228;2024-03-08T01:06:45;2.90;1.00
336;DHT22;156;48.738;9.228;2024-03-08T01:09:12;2.90;1.00
336;DHT22;156;48.738;9.228;2024-03-08T01:11:40;2.90;1.00
336;DHT22;156;48.738;9.228;2024-03-08T01:14:07;2.80;1.00
336;DHT22;156;48.738;9.228;2024-03-08T01:16:36;2.80;1.00
336;DHT22;156;48.738;9.228;2024-03-08T01:19:03;2.80;1.00
336;DHT22;156;48.738;9.228;2024-03-08T01:21:30;2.60;1.00
336;DHT22;156;48.738;9.228;2024-03-08T01:23:56;2.60;1.00
336;DHT22;156;48.738;9.228;2024-03-08T01:26:23;2.60;1.00
336;DHT22;156;48.738;9.228;2024-03-08T01:28:49;2.60;1.00
336;DHT22;156;48.738;9.228;2024-03-08T01:31:16;2.60;1.00
336;DHT22;156;48.738;9.228;2024-03-08T01:33:45;2.60;1.00
336;DHT22;156;48.738;9.228;2024-03-08T01:36:12;2.60;1.00
336;DHT22;156;48.738;9.228;2024-03-08T01:38:42;1.70;1.00
336;DHT22;156;48.738;9.228;2024-03-08T01:41:09;2.50;1.00
336;DHT22;156;48.738;9.228;2024-03-08T01:43:36;2.50;1.00
336;DHT22;156;48.738;9.228;2024-03-08T01:46:03;2.40;1.00
336;DHT22;156;48.738;9.228;2024-03-08T01:48:39;2.50;1.00
336;DHT22;156;48.738;9.228;2024-03-08T01:51:08;2.50;1.00
336;DHT22;156;48.738;9.228;2024-03-08T01:53:37;2.50;1.00
336;DHT22;156;48.738;9.228;2024-03-08T01:56:06;2.40;1.00
336;DHT22;156;48.738;9.228;2024-03-08T01:58:35;2.50;1.00
336;DHT22;156;48.738;9.228;2024-03-08T02:01:05;2.40;1.00
336;DHT22;156;48.738;9.228;2024-03-08T02:03:32;2.40;1.00
336;DHT22;156;48.738;9.228;2024-03-08T02:05:59;2.40;1.00
336;DHT22;156;48.738;9.228;2024-03-08T02:08:27;2.40;1.00
336;DHT22;156;48.738;9.228;2024-03-08T02:10:54;2.40;1.00
336;DHT22;156;48.738;9.228;2024-03-08T02:13:21;2.40;1.00
336;DHT22;156;48.738;9.228;2024-03-08T02:15:52;2.40;99.90
336;DHT22;156;48.738;9.228;2024-03-08T02:18:19;2.30;99.90
336;DHT22;156;48.738;9.228;2024-03-08T02:20:48;2.30;99.90
336;DHT22;156;48.738;9.228;2024-03-08T02:23:15;2.30;99.90
336;DHT22;156;48.738;9.228;2024-03-08T02:25:43;2.30;99.90
336;DHT22;156;48.738;9.228;2024-03-08T02:28:10;2.20;99.90
336;DHT22;156;48.738;9.228;2024-03-08T02:30:38;2.30;99.90
336;DHT22;156;48.738;9.228;2024-03-08T02:33:05;2.30;99.90
336;DHT22;156;48.738;9.228;2024-03-08T02:35:32;2.30;99.90
336;DHT22;156;48.738;9.228;2024-03-08T02:38:00;2.20;99.90
336;DHT22;156;48.738;9.228;2024-03-08T02:40:29;2.10;99.90
336;DHT22;156;48.738;9.228;2024-03-08T02:42:56;2.10;99.90
336;DHT22;156;48.738;9.228;2024-03-08T02:45:22;2.10;99.90
336;DHT22;156;48.738;9.228;2024-03-08T02:47:50;2.10;99.90
336;DHT22;156;48.738;9.228;2024-03-08T02:50:17;2.10;99.90
336;DHT22;156;48.738;9.228;2024-03-08T02:52:44;2.00;1.00
336;DHT22;156;48.738;9.228;2024-03-08T02:55:13;1.90;99.90
336;DHT22;156;48.738;9.228;2024-03-08T02:57:41;2.00;1.00
336;DHT22;156;48.738;9.228;2024-03-08T03:00:10;2.00;1.00
336;DHT22;156;48.738;9.228;2024-03-08T03:02:37;2.10;1.00
336;DHT22;156;48.738;9.228;2024-03-08T03:05:04;2.00;1.00
336;DHT22;156;48.738;9.228;2024-03-08T03:07:32;1.90;1.00
336;DHT22;156;48.738;9.228;2024-03-08T03:09:59;1.90;1.00
336;DHT22;156;48.738;9.228;2024-03-08T03:12:28;1.90;1.00
336;DHT22;156;48.738;9.228;2024-03-08T03:14:56;1.90;1.00
336;DHT22;156;48.738;9.228;2024-03-08T03:17:23;1.90;1.00
336;DHT22;156;48.738;9.228;2024-03-08T03:19:50;1.90;1.00
336;DHT22;156;48.738;9.228;2024-03-08T03:22:17;1.80;1.00
336;DHT22;156;48.738;9.228;2024-03-08T03:24:44;1.80;1.00
336;DHT22;156;48.738;9.228;2024-03-08T03:27:12;1.70;1.00
336;DHT22;156;48.738;9.228;2024-03-08T03:29:42;1.70;1.00
336;DHT22;156;48.738;9.228;2024-03-08T03:32:11;1.80;1.00
336;DHT22;156;48.738;9.228;2024-03-08T03:34:38;1.70;1.00
336;DHT22;156;48.738;9.228;2024-03-08T03:37:06;1.60;1.00
336;DHT22;156;48.738;9.228;2024-03-08T03:39:34;1.60;1.00
336;DHT22;156;48.738;9.228;2024-03-08T03:42:06;1.70;1.00
336;DHT22;156;48.738;9.228;2024-03-08T03:44:33;1.70;1.00
336;DHT22;156;48.738;9.228;2024-03-08T03:47:01;1.60;1.00
336;DHT22;156;48.738;9.228;2024-03-08T03:49:28;1.70;1.00
336;DHT22;156;48.738;9.228;2024-03-08T03:51:55;1.60;1.00
336;DHT22;156;48.738;9.228;2024-03-08T03:54:22;1.60;1.00
336;DHT22;156;48.738;9.228;2024-03-08T03:56:49;1.70;1.00
336;DHT22;156;48.738;9.228;2024-03-08T03:59:18;1.60;1.00
336;DHT22;156;48.738;9.228;2024-03-08T04:01:45;1.60;1.00
336;DHT22;156;48.738;9.228;2024-03-08T04:04:13;1.60;1.00
336;DHT22;156;48.738;9.228;2024-03-08T04:06:43;1.60;1.00
336;DHT22;156;48.738;9.228;2024-03-08T04:09:10;1.60;1.00
336;DHT22;156;48.738;9.228;2024-03-08T04:11:38;1.50;1.00
336;DHT22;156;48.738;9.228;2024-03-08T04:14:06;1.50;22.60
336;DHT22;156;48.738;9.228;2024-03-08T04:16:33;1.40;78.70
336;DHT22;156;48.738;9.228;2024-03-08T04:19:00;1.40;99.90
336;DHT22;156;48.738;9.228;2024-03-08T04:21:31;1.40;99.90
336;DHT22;156;48.738;9.228;2024-03-08T04:23:58;1.40;99.90
336;DHT22;156;48.738;9.228;2024-03-08T04:26:25;1.40;99.90
336;DHT22;156;48.738;9.228;2024-03-08T04:28:52;1.40;99.90
336;DHT22;156;48.738;9.228;2024-03-08T04:31:19;1.40;99.90
336;DHT22;156;48.738;9.228;2024-03-08T04:33:47;1.40;99.90
336;DHT22;156;48.738;9.228;2024-03-08T04:36:14;1.40;99.90
336;DHT22;156;48.738;9.228;2024-03-08T04:38:42;1.40;99.90
336;DHT22;156;48.738;9.228;2024-03-08T04:41:11;1.30;99.90
336;DHT22;156;48.738;9.228;2024-03-08T04:43:38;1.30;99.90
336;DHT22;156;48.738;9.228;2024-03-08T04:46:05;1.30;99.90
336;DHT22;156;48.738;9.228;2024-03-08T04:48:32;1.30;99.90
336;DHT22;156;48.738;9.228;2024-03-08T04:51:02;1.30;99.90
336;DHT22;156;48.738;9.228;2024-03-08T04:53:29;1.30;99.90
336;DHT22;156;48.738;9.228;2024-03-08T04:56:00;1.20;99.90
336;DHT22;156;48.738;9.228;2024-03-08T04:58:31;1.20;99.90
336;DHT22;156;48.738;9.228;2024-03-08T05:01:02;1.20;99.90
336;DHT22;156;48.738;9.228;2024-03-08T05:03:29;1.20;99.90
336;DHT22;156;48.738;9.228;2024-03-08T05:05:56;1.20;99.90
336;DHT22;156;48.738;9.228;2024-03-08T05:08:23;1.20;99.90
336;DHT22;156;48.738;9.228;2024-03-08T05:10:49;1.20;99.90
336;DHT22;156;48.738;9.228;2024-03-08T05:13:18;1.20;99.90
336;DHT22;156;48.738;9.228;2024-03-08T05:15:48;1.20;99.90
336;DHT22;156;48.738;9.228;2024-03-08T05:18:15;1.30;99.90
336;DHT22;156;48.738;9.228;2024-03-08T05:20:44;1.20;99.90
336;DHT22;156;48.738;9.228;2024-03-08T05:23:11;1.20;99.90
336;DHT22;156;48.738;9.228;2024-03-08T05:25:38;1.20;99.90
336;DHT22;156;48.738;9.228;2024-03-08T05:28:05;1.20;99.90
336;DHT22;156;48.738;9.228;2024-03-08T05:30:34;1.10;99.90
336;DHT22;156;48.738;9.228;2024-03-08T05:33:01;1.10;1.00
336;DHT22;156;48.738;9.228;2024-03-08T05:35:29;1.10;1.00
336;DHT22;156;48.738;9.228;2024-03-08T05:37:56;1.10;1.00
336;DHT22;156;48.738;9.228;2024-03-08T05:40:23;1.00;1.00
336;DHT22;156;48.738;9.228;2024-03-08T05:42:50;1.00;1.00
336;DHT22;156;48.738;9.228;2024-03-08T05:45:17;1.00;1.00
336;DHT22;156;48.738;9.228;2024-03-08T05:47:45;1.00;1.00
336;DHT22;156;48.738;9.228;2024-03-08T05:50:13;1.00;1.00
336;DHT22;156;48.738;9.228;2024-03-08T05:52:41;1.00;1.00
336;DHT22;156;48.738;9.228;2024-03-08T05:55:09;1.00;1.00
336;DHT22;156;48.738;9.228;2024-03-08T05:57:35;1.00;1.00
336;DHT22;156;48.738;9.228;2024-03-08T06:00:04;1.00;1.00
336;DHT22;156;48.738;9.228;2024-03-08T06:02:31;1.00;1.00
336;DHT22;156;48.738;9.228;2024-03-08T06:04:59;1.00;1.00
336;DHT22;156;48.738;9.228;2024-03-08T06:07:27;1.10;1.00
336;DHT22;156;48.738;9.228;2024-03-08T06:09:55;1.10;1.00
336;DHT22;156;48.738;9.228;2024-03-08T06:12:22;1.10;1.00
336;DHT22;156;48.738;9.228;2024-03-08T06:14:54;1.10;1.00
336;DHT22;156;48.738;9.228;2024-03-08T06:17:21;1.10;1.00
336;DHT22;156;48.738;9.228;2024-03-08T06:19:51;1.10;1.00
336;DHT22;156;48.738;9.228;2024-03-08T06:22:21;1.10;1.00
336;DHT22;156;48.738;9.228;2024-03-08T06:24:48;1.10;1.00
336;DHT22;156;48.738;9.228;2024-03-08T06:27:15;1.10;1.00
336;DHT22;156;48.738;9.228;2024-03-08T06:29:43;1.10;1.00
336;DHT22;156;48.738;9.228;2024-03-08T06:32:09;1.20;1.00
336;DHT22;156;48.738;9.228;2024-03-08T06:34:36;1.20;1.00
336;DHT22;156;48.738;9.228;2024-03-08T06:37:03;1.20;1.00
336;DHT22;156;48.738;9.228;2024-03-08T06:39:31;1.30;1.00
336;DHT22;156;48.738;9.228;2024-03-08T06:42:00;1.30;1.00
336;DHT22;156;48.738;9.228;2024-03-08T06:44:26;1.40;1.00
336;DHT22;156;48.738;9.228;2024-03-08T06:46:53;1.40;1.00
336;DHT22;156;48.738;9.228;2024-03-08T06:49:20;1.50;1.00
336;DHT22;156;48.738;9.228;2024-03-08T06:51:47;1.60;99.90
336;DHT22;156;48.738;9.228;2024-03-08T06:54:14;1.70;99.90
336;DHT22;156;48.738;9.228;2024-03-08T06:56:42;1.70;99.90
336;DHT22;156;48.738;9.228;2024-03-08T06:59:09;1.70;99.90
336;DHT22;156;48.738;9.228;2024-03-08T07:01:36;1.80;99.90
336;DHT22;156;48.738;9.228;2024-03-08T07:04:04;1.80;99.90
336;DHT22;156;48.738;9.228;2024-03-08T07:06:31;1.90;99.90
336;DHT22;156;48.738;9.228;2024-03-08T07:08:59;2.00;99.90
336;DHT22;156;48.738;9.228;2024-03-08T07:11:26;2.10;29.00
336;DHT22;156;48.738;9.228;2024-03-08T07:13:55;2.10;1.00
336;DHT22;156;48.738;9.228;2024-03-08T07:16:23;2.20;1.00
336;DHT22;156;48.738;9.228;2024-03-08T07:18:52;2.20;1.00
336;DHT22;156;48.738;9.228;2024-03-08T07:21:19;2.30;1.00
336;DHT22;156;48.738;9.228;2024-03-08T07:23:46;2.20;1.00
336;DHT22;156;48.738;9.228;2024-03-08T07:26:28;2.40;1.00
336;DHT22;156;48.738;9.228;2024-03-08T07:28:57;2.40;1.00
336;DHT22;156;48.738;9.228;2024-03-08T07:31:26;2.40;1.00
336;DHT22;156;48.738;9.228;2024-03-08T07:34:03;2.40;1.00
336;DHT22;156;48.738;9.228;2024-03-08T07:36:33;2.50;1.00
336;DHT22;156;48.738;9.228;2024-03-08T07:39:00;2.50;1.00
336;DHT22;156;48.738;9.228;2024-03-08T07:41:27;2.70;1.00
336;DHT22;156;48.738;9.228;2024-03-08T07:43:54;2.80;99.90
336;DHT22;156;48.738;9.228;2024-03-08T07:46:23;2.80;99.90
336;DHT22;156;48.738;9.228;2024-03-08T07:48:49;2.80;99.90
336;DHT22;156;48.738;9.228;2024-03-08T07:51:17;2.80;99.90
336;DHT22;156;48.738;9.228;2024-03-08T07:53:44;2.70;99.90
336;DHT22;156;48.738;9.228;2024-03-08T07:56:11;2.80;99.90
336;DHT22;156;48.738;9.228;2024-03-08T07:58:39;2.80;99.90
336;DHT22;156;48.738;9.228;2024-03-08T08:01:07;2.80;99.90
336;DHT22;156;48.738;9.228;2024-03-08T08:03:35;2.80;99.90
336;DHT22;156;48.738;9.228;2024-03-08T08:06:04;2.80;99.90
336;DHT22;156;48.738;9.228;2024-03-08T08:08:31;2.90;99.90
336;DHT22;156;48.738;9.228;2024-03-08T08:10:58;3.00;99.90
336;DHT22;156;48.738;9.228;2024-03-08T08:13:25;2.90;99.90
336;DHT22;156;48.738;9.228;2024-03-08T08:15:53;2.90;99.90
336;DHT22;156;48.738;9.228;2024-03-08T08:18:22;3.00;99.90
336;DHT22;156;48.738;9.228;2024-03-08T08:20:52;3.10;94.60
336;DHT22;156;48.738;9.228;2024-03-08T08:23:19;3.10;24.10
336;DHT22;156;48.738;9.228;2024-03-08T08:25:46;3.20;1.00
336;DHT22;156;48.738;9.228;2024-03-08T08:28:15;3.20;1.00
336;DHT22;156;48.738;9.228;2024-03-08T08:30:43;3.30;1.00
336;DHT22;156;48.738;9.228;2024-03-08T08:33:10;3.20;1.00
336;DHT22;156;48.738;9.228;2024-03-08T08:35:37;3.30;1.00
336;DHT22;156;48.738;9.228;2024-03-08T08:38:05;3.30;1.00
336;DHT22;156;48.738;9.228;2024-03-08T08:40:33;3.30;1.00
336;DHT22;156;48.738;9.228;2024-03-08T08:43:02;3.30;1.00
336;DHT22;156;48.738;9.228;2024-03-08T08:45:30;3.40;1.00
336;DHT22;156;48.738;9.228;2024-03-08T08:47:57;3.50;1.00
336;DHT22;156;48.738;9.228;2024-03-08T08:50:25;3.50;1.00
336;DHT22;156;48.738;9.228;2024-03-08T08:52:54;3.50;1.00
336;DHT22;156;48.738;9.228;2024-03-08T08:55:21;3.60;1.00
336;DHT22;156;48.738;9.228;2024-03-08T08:57:51;3.50;1.00
336;DHT22;156;48.738;9.228;2024-03-08T09:00:19;3.40;1.00
336;DHT22;156;48.738;9.228;2024-03-08T09:02:47;3.40;1.00
336;DHT22;156;48.738;9.228;2024-03-08T09:05:16;3.60;1.00
336;DHT22;156;48.738;9.228;2024-03-08T09:07:43;3.70;1.00
336;DHT22;156;48.738;9.228;2024-03-08T09:10:11;3.60;1.00
336;DHT22;156;48.738;9.228;2024-03-08T09:12:41;3.40;1.00
336;DHT22;156;48.738;9.228;2024-03-08T09:15:08;3.50;1.00
336;DHT22;156;48.738;9.228;2024-03-08T09:17:36;3.50;1.00
336;DHT22;156;48.738;9.228;2024-03-08T09:20:06;3.60;1.00
336;DHT22;156;48.738;9.228;2024-03-08T09:22:34;3.70;1.00
336;DHT22;156;48.738;9.228;2024-03-08T09:25:01;3.70;1.00
336;DHT22;156;48.738;9.228;2024-03-08T09:27:30;3.80;1.00
336;DHT22;156;48.738;9.228;2024-03-08T09:29:59;3.90;1.00
336;DHT22;156;48.738;9.228;2024-03-08T09:32:26;3.90;1.00
336;DHT22;156;48.738;9.228;2024-03-08T09:34:53;3.80;1.00
336;DHT22;156;48.738;9.228;2024-03-08T09:37:21;4.00;1.00
336;DHT22;156;48.738;9.228;2024-03-08T09:39:49;4.00;1.00
336;DHT22;156;48.738;9.228;2024-03-08T09:42:16;3.90;1.00
336;DHT22;156;48.738;9.228;2024-03-08T09:44:49;4.00;1.00
336;DHT22;156;48.738;9.228;2024-03-08T09:47:18;4.00;1.00
336;DHT22;156;48.738;9.228;2024-03-08T09:49:45;4.00;1.00
336;DHT22;156;48.738;9.228;2024-03-08T09:52:12;4.20;1.00
336;DHT22;156;48.738;9.228;2024-03-08T09:54:39;4.20;1.00
336;DHT22;156;48.738;9.228;2024-03-08T09:57:10;4.20;1.00
336;DHT22;156;48.738;9.228;2024-03-08T09:59:37;4.30;99.90
336;DHT22;156;48.738;9.228;2024-03-08T10:02:15;4.40;99.90
336;DHT22;156;48.738;9.228;2024-03-08T10:04:44;4.40;99.90
336;DHT22;156;48.738;9.228;2024-03-08T10:07:12;4.50;99.90
336;DHT22;156;48.738;9.228;2024-03-08T10:09:40;4.60;99.90
336;DHT22;156;48.738;9.228;2024-03-08T10:12:08;4.70;99.90
336;DHT22;156;48.738;9.228;2024-03-08T10:14:39;4.80;99.90
336;DHT22;156;48.738;9.228;2024-03-08T10:17:07;4.70;99.90
336;DHT22;156;48.738;9.228;2024-03-08T10:19:34;4.50;99.90
336;DHT22;156;48.738;9.228;2024-03-08T10:22:03;4.40;99.90
336;DHT22;156;48.738;9.228;2024-03-08T10:24:30;4.50;99.90
336;DHT22;156;48.738;9.228;2024-03-08T10:26:59;4.70;99.90
336;DHT22;156;48.738;9.228;2024-03-08T10:29:27;4.70;99.90
336;DHT22;156;48.738;9.228;2024-03-08T10:31:54;4.80;99.90
336;DHT22;156;48.738;9.228;2024-03-08T10:34:23;5.00;99.90
336;DHT22;156;48.738;9.228;2024-03-08T10:36:51;4.90;99.90
336;DHT22;156;48.738;9.228;2024-03-08T10:39:22;5.10;99.90
336;DHT22;156;48.738;9.228;2024-03-08T10:41:57;5.20;99.90
336;DHT22;156;48.738;9.228;2024-03-08T10:44:44;5.30;99.90
336;DHT22;156;48.738;9.228;2024-03-08T10:47:19;5.50;43.20
336;DHT22;156;48.738;9.228;2024-03-08T10:49:54;5.50;1.00
336;DHT22;156;48.738;9.228;2024-03-08T10:52:21;5.60;1.00
336;DHT22;156;48.738;9.228;2024-03-08T10:54:52;5.70;1.00
336;DHT22;156;48.738;9.228;2024-03-08T10:57:22;5.80;1.00
336;DHT22;156;48.738;9.228;2024-03-08T10:59:51;5.60;1.00
336;DHT22;156;48.738;9.228;2024-03-08T11:02:18;5.60;1.00
336;DHT22;156;48.738;9.228;2024-03-08T11:04:46;5.80;1.00
336;DHT22;156;48.738;9.228;2024-03-08T11:07:14;5.60;1.00
336;DHT22;156;48.738;9.228;2024-03-08T11:09:44;5.70;1.00
336;DHT22;156;48.738;9.228;2024-03-08T11:12:23;5.90;1.00
336;DHT22;156;48.738;9.228;2024-03-08T11:14:55;6.00;1.00
336;DHT22;156;48.738;9.228;2024-03-08T11:17:39;6.10;1.00
336;DHT22;156;48.738;9.228;2024-03-08T11:20:10;6.30;1.00
336;DHT22;156;48.738;9.228;2024-03-08T11:22:41;6.40;1.00
336;DHT22;156;48.738;9.228;2024-03-08T11:25:30;6.40;1.00
336;DHT22;156;48.738;9.228;2024-03-08T11:28:09;6.50;1.00
336;DHT22;156;48.738;9.228;2024-03-08T11:30:42;6.60;1.00
336;DHT22;156;48.738;9.228;2024-03-08T11:33:12;6.40;1.00
336;DHT22;156;48.738;9.228;2024-03-08T11:35:39;6.50;1.00
336;DHT22;156;48.738;9.228;2024-03-08T11:38:08;6.70;1.00
336;DHT22;156;48.738;9.228;2024-03-08T11:40:36;6.80;1.00
336;DHT22;156;48.738;9.228;2024-03-08T11:43:03;6.90;1.00
336;DHT22;156;48.738;9.228;2024-03-08T11:45:34;7.00;1.00
336;DHT22;156;48.738;9.228;2024-03-08T11:48:03;7.10;1.00
336;DHT22;156;48.738;9.228;2024-03-08T11:50:30;6.90;1.00
336;DHT22;156;48.738;9.228;2024-03-08T11:53:02;6.90;1.00
336;DHT22;156;48.738;9.228;2024-03-08T11:55:29;6.90;1.00
336;DHT22;156;48.738;9.228;2024-03-08T11:58:03;6.80;1.00
336;DHT22;156;48.738;9.228;2024-03-08T12:00:31;6.80;1.00
336;DHT22;156;48.738;9.228;2024-03-08T12:03:06;6.90;1.00
336;DHT22;156;48.738;9.228;2024-03-08T12:05:33;7.00;1.00
336;DHT22;156;48.738;9.228;2024-03-08T12:08:01;7.10;1.00
336;DHT22;156;48.738;9.228;2024-03-08T12:10:29;7.10;1.00
336;DHT22;156;48.738;9.228;2024-03-08T12:12:57;6.90;1.00
336;DHT22;156;48.738;9.228;2024-03-08T12:15:26;7.00;1.00
336;DHT22;156;48.738;9.228;2024-03-08T12:17:53;7.10;1.00
336;DHT22;156;48.738;9.228;2024-03-08T12:20:24;7.10;1.00
336;DHT22;156;48.738;9.228;2024-03-08T12:22:52;7.30;1.00
336;DHT22;156;48.738;9.228;2024-03-08T12:25:19;7.20;1.00
336;DHT22;156;48.738;9.228;2024-03-08T12:27:46;7.50;1.00
336;DHT22;156;48.738;9.228;2024-03-08T12:30:18;7.80;1.00
336;DHT22;156;48.738;9.228;2024-03-08T12:32:51;8.00;1.00
336;DHT22;156;48.738;9.228;2024-03-08T12:35:21;8.20;1.00
336;DHT22;156;48.738;9.228;2024-03-08T12:37:50;8.60;1.00
336;DHT22;156;48.738;9.228;2024-03-08T12:40:17;9.00;1.00
336;DHT22;156;48.738;9.228;2024-03-08T12:42:44;9.40;99.90
336;DHT22;156;48.738;9.228;2024-03-08T12:45:13;9.50;99.90
336;DHT22;156;48.738;9.228;2024-03-08T12:47:40;9.70;99.90
336;DHT22;156;48.738;9.228;2024-03-08T12:50:09;9.70;99.90
336;DHT22;156;48.738;9.228;2024-03-08T12:52:38;9.80;99.90
336;DHT22;156;48.738;9.228;2024-03-08T12:55:05;9.90;99.90
336;DHT22;156;48.738;9.228;2024-03-08T12:57:34;10.00;99.90
336;DHT22;156;48.738;9.228;2024-03-08T13:00:02;10.10;99.90
336;DHT22;156;48.738;9.228;2024-03-08T13:02:29;9.80;99.90
336;DHT22;156;48.738;9.228;2024-03-08T13:04:57;10.10;99.90
336;DHT22;156;48.738;9.228;2024-03-08T13:07:25;9.70;99.90
336;DHT22;156;48.738;9.228;2024-03-08T13:09:54;9.60;99.90
336;DHT22;156;48.738;9.228;2024-03-08T13:12:22;9.80;99.90
336;DHT22;156;48.738;9.228;2024-03-08T13:14:49;9.70;99.90
336;DHT22;156;48.738;9.228;2024-03-08T13:17:16;9.90;99.90
336;DHT22;156;48.738;9.228;2024-03-08T13:19:44;10.00;99.90
336;DHT22;156;48.738;9.228;2024-03-08T13:22:10;10.20;99.90
336;DHT22;156;48.738;9.228;2024-03-08T13:24:39;10.10;99.90
336;DHT22;156;48.738;9.228;2024-03-08T13:27:08;10.40;99.90
336;DHT22;156;48.738;9.228;2024-03-08T13:29:46;10.80;99.90
336;DHT22;156;48.738;9.228;2024-03-08T13:32:14;11.10;99.90
336;DHT22;156;48.738;9.228;2024-03-08T13:34:41;11.10;99.90
336;DHT22;156;48.738;9.228;2024-03-08T13:37:08;11.10;99.90
336;DHT22;156;48.738;9.228;2024-03-08T13:39:37;11.30;47.40
336;DHT22;156;48.738;9.228;2024-03-08T13:42:10;11.30;1.00
336;DHT22;156;48.738;9.228;2024-03-08T13:44:39;11.50;1.00
336;DHT22;156;48.738;9.228;2024-03-08T13:47:07;11.50;1.00
336;DHT22;156;48.738;9.228;2024-03-08T13:49:34;11.60;1.00
336;DHT22;156;48.738;9.228;2024-03-08T13:52:02;11.60;1.00
336;DHT22;156;48.738;9.228;2024-03-08T13:54:30;11.70;1.00
336;DHT22;156;48.738;9.228;2024-03-08T13:56:57;11.50;1.00
336;DHT22;156;48.738;9.228;2024-03-08T13:59:26;11.50;1.00
336;DHT22;156;48.738;9.228;2024-03-08T14:01:55;11.10;1.00
336;DHT22;156;48.738;9.228;2024-03-08T14:04:23;11.40;1.00
336;DHT22;156;48.738;9.228;2024-03-08T14:06:51;11.50;1.00
336;DHT22;156;48.738;9.228;2024-03-08T14:09:23;11.50;1.00
336;DHT22;156;48.738;9.228;2024-03-08T14:11:50;11.90;1.00
336;DHT22;156;48.738;9.228;2024-03-08T14:14:20;11.60;1.00
336;DHT22;156;48.738;9.228;2024-03-08T14:16:50;11.70;1.00
336;DHT22;156;48.738;9.228;2024-03-08T14:19:19;11.70;1.00
336;DHT22;156;48.738;9.228;2024-03-08T14:21:46;11.60;1.00
336;DHT22;156;48.738;9.228;2024-03-08T14:24:14;11.60;1.00
336;DHT22;156;48.738;9.228;2024-03-08T14:26:42;12.10;1.00
336;DHT22;156;48.738;9.228;2024-03-08T14:29:09;12.50;1.00
336;DHT22;156;48.738;9.228;2024-03-08T14:31:37;12.60;1.00
336;DHT22;156;48.738;9.228;2024-03-08T14:34:05;13.20;1.00
336;DHT22;156;48.738;9.228;2024-03-08T14:36:32;13.10;1.00
336;DHT22;156;48.738;9.228;2024-03-08T14:38:59;13.30;1.00
336;DHT22;156;48.738;9.228;2024-03-08T14:41:26;13.30;1.00
336;DHT22;156;48.738;9.228;2024-03-08T14:43:53;13.40;1.00
336;DHT22;156;48.738;9.228;2024-03-08T14:46:20;13.20;1.00
336;DHT22;156;48.738;9.228;2024-03-08T14:48:49;13.20;1.00
336;DHT22;156;48.738;9.228;2024-03-08T14:51:18;13.10;1.00
336;DHT22;156;48.738;9.228;2024-03-08T14:53:48;12.80;1.00
336;DHT22;156;48.738;9.228;2024-03-08T14:56:15;12.80;1.00
336;DHT22;156;48.738;9.228;2024-03-08T14:58:43;13.10;1.00
336;DHT22;156;48.738;9.228;2024-03-08T15:01:10;13.10;1.00
336;DHT22;156;48.738;9.228;2024-03-08T15:03:39;13.20;1.00
336;DHT22;156;48.738;9.228;2024-03-08T15:06:06;13.10;1.00
336;DHT22;156;48.738;9.228;2024-03-08T15:08:37;13.30;1.00
336;DHT22;156;48.738;9.228;2024-03-08T15:11:05;13.20;1.00
336;DHT22;156;48.738;9.228;2024-03-08T15:13:33;13.30;1.00
336;DHT22;156;48.738;9.228;2024-03-08T15:16:07;12.90;1.00
336;DHT22;156;48.738;9.228;2024-03-08T15:18:40;12.80;1.00
336;DHT22;156;48.738;9.228;2024-03-08T15:21:12;12.70;1.00
336;DHT22;156;48.738;9.228;2024-03-08T15:23:46;12.80;1.00
336;DHT22;156;48.738;9.228;2024-03-08T15:26:15;12.80;1.00
336;DHT22;156;48.738;9.228;2024-03-08T15:28:43;12.60;1.00
336;DHT22;156;48.738;9.228;2024-03-08T15:31:11;12.40;1.00
336;DHT22;156;48.738;9.228;2024-03-08T15:33:39;12.20;1.00
336;DHT22;156;48.738;9.228;2024-03-08T15:36:10;12.10;1.00
336;DHT22;156;48.738;9.228;2024-03-08T15:38:39;11.90;1.00
336;DHT22;156;48.738;9.228;2024-03-08T15:41:08;11.70;1.00
336;DHT22;156;48.738;9.228;2024-03-08T15:43:37;11.80;1.00
336;DHT22;156;48.738;9.228;2024-03-08T15:46:05;11.60;1.00
336;DHT22;156;48.738;9.228;2024-03-08T15:48:32;11.60;1.00
336;DHT22;156;48.738;9.228;2024-03-08T15:51:01;11.60;1.00
336;DHT22;156;48.738;9.228;2024-03-08T15:53:30;11.50;1.00
336;DHT22;156;48.738;9.228;2024-03-08T15:55:57;11.60;1.00
336;DHT22;156;48.738;9.228;2024-03-08T15:58:25;11.60;1.00
336;DHT22;156;48.738;9.228;2024-03-08T16:00:52;11.60;1.00
336;DHT22;156;48.738;9.228;2024-03-08T16:03:21;11.60;1.00
336;DHT22;156;48.738;9.228;2024-03-08T16:05:49;11.40;1.00
336;DHT22;156;48.738;9.228;2024-03-08T16:08:17;11.30;1.00
336;DHT22;156;48.738;9.228;2024-03-08T16:10:47;11.20;1.00
336;DHT22;156;48.738;9.228;2024-03-08T16:13:16;11.20;1.00
336;DHT22;156;48.738;9.228;2024-03-08T16:15:45;11.20;1.00
336;DHT22;156;48.738;9.228;2024-03-08T16:18:12;11.20;1.00
336;DHT22;156;48.738;9.228;2024-03-08T16:20:39;11.30;1.00
336;DHT22;156;48.738;9.228;2024-03-08T16:23:06;11.30;1.00
336;DHT22;156;48.738;9.228;2024-03-08T16:25:35;11.10;1.00
336;DHT22;156;48.738;9.228;2024-03-08T16:28:02;11.00;1.00
336;DHT22;156;48.738;9.228;2024-03-08T16:30:29;11.00;1.00
336;DHT22;156;48.738;9.228;2024-03-08T16:33:00;10.70;1.00
336;DHT22;156;48.738;9.228;2024-03-08T16:35:27;10.80;1.00
336;DHT22;156;48.738;9.228;2024-03-08T16:37:54;11.00;1.00
336;DHT22;156;48.738;9.228;2024-03-08T16:40:21;10.90;1.00
336;DHT22;156;48.738;9.228;2024-03-08T16:42:50;10.80;1.00
336;DHT22;156;48.738;9.228;2024-03-08T16:45:18;10.40;1.00
336;DHT22;156;48.738;9.228;2024-03-08T16:47:46;10.20;1.00
336;DHT22;156;48.738;9.228;2024-03-08T16:50:16;10.10;1.00
336;DHT22;156;48.738;9.228;2024-03-08T16:52:43;9.70;1.00
336;DHT22;156;48.738;9.228;2024-03-08T16:55:11;9.60;1.00
336;DHT22;156;48.738;9.228;2024-03-08T16:57:42;9.40;1.00
336;DHT22;156;48.738;9.228;2024-03-08T17:00:13;9.30;17.70
336;DHT22;156;48.738;9.228;2024-03-08T17:02:40;9.20;39.70
336;DHT22;156;48.738;9.228;2024-03-08T17:05:08;9.10;55.50
336;DHT22;156;48.738;9.228;2024-03-08T17:07:36;9.10;65.20